createdAt,value
2022-12-12T00:02:23.312Z,46.45
2022-12-12T00:04:51.807Z,45.92
2022-12-12T00:07:21.557Z,46.35
2022-12-12T00:09:49.925Z,46.76
2022-12-12T00:12:18.301Z,46.21
2022-12-12T00:14:46.634Z,46.42
2022-12-12T00:17:15.108Z,46.22
2022-12-12T00:19:44.157Z,45.48
2022-12-12T00:22:12.578Z,45.79
2022-12-12T00:24:42.305Z,45.85
2022-12-12T00:27:10.630Z,45.96
2022-12-12T00:29:39.064Z,45.82
2022-12-12T00:32:07.504Z,45.68
2022-12-12T00:34:35.896Z,46.00
2022-12-12T00:37:04.283Z,46.30
2022-12-12T00:39:32.637Z,46.04
2022-12-12T00:42:02.363Z,46.45
2022-12-12T00:44:30.750Z,46.35
2022-12-12T00:46:59.110Z,45.42
2022-12-12T00:49:28.052Z,45.55
2022-12-12T00:51:56.385Z,45.79
2022-12-12T00:54:24.905Z,46.25
2022-12-12T00:56:53.389Z,46.14
2022-12-12T00:59:23.200Z,46.17
2022-12-12T01:01:51.660Z,45.73
2022-12-12T01:04:20.030Z,45.29
2022-12-12T01:06:48.461Z,45.10
2022-12-12T01:09:16.830Z,45.52
2022-12-12T01:11:45.211Z,45.52
2022-12-12T01:14:13.758Z,45.07
2022-12-12T01:16:43.610Z,45.62
2022-12-12T01:19:11.963Z,45.37
2022-12-12T01:21:40.342Z,44.80
2022-12-12T01:24:08.893Z,45.36
2022-12-12T01:26:38.057Z,44.84
2022-12-12T01:29:06.457Z,45.04
2022-12-12T01:31:34.822Z,45.30
2022-12-12T01:34:04.656Z,44.98
2022-12-12T01:36:33.091Z,44.74
2022-12-12T01:39:01.463Z,44.54
2022-12-12T01:41:29.917Z,44.28
2022-12-12T01:44:02.350Z,44.52
2022-12-12T01:46:46.191Z,44.73
2022-12-12T01:49:24.701Z,44.39
2022-12-12T01:51:59.243Z,44.45
2022-12-12T01:54:32.755Z,44.84
2022-12-12T01:57:06.282Z,45.17
2022-12-12T01:59:36.604Z,44.86
2022-12-12T02:02:05.845Z,44.99
2022-12-12T02:04:36.049Z,44.60
2022-12-12T02:07:05.156Z,44.29
2022-12-12T02:09:34.762Z,44.16
2022-12-12T02:12:03.251Z,44.19
2022-12-12T02:14:36.048Z,44.59
2022-12-12T02:17:50.229Z,44.48
2022-12-12T02:20:56.943Z,44.73
2022-12-12T02:24:33.157Z,44.64
2022-12-12T02:27:57.823Z,44.98
2022-12-12T02:30:34.272Z,44.87
2022-12-12T02:33:30.182Z,45.04
2022-12-12T02:36:13.880Z,44.99
2022-12-12T02:38:53.692Z,45.19
2022-12-12T02:41:32.773Z,45.02
2022-12-12T02:44:15.830Z,45.38
2022-12-12T02:46:53.736Z,45.38
2022-12-12T02:49:29.205Z,45.49
2022-12-12T02:52:00.490Z,45.65
2022-12-12T02:54:29.310Z,45.42
2022-12-12T02:57:00.522Z,45.22
2022-12-12T02:59:34.145Z,45.47
2022-12-12T03:02:42.655Z,45.25
2022-12-12T03:05:50.252Z,45.24
2022-12-12T03:08:39.429Z,45.19
2022-12-12T03:11:12.061Z,45.48
2022-12-12T03:13:48.580Z,45.37
2022-12-12T03:16:27.450Z,45.56
2022-12-12T03:19:05.785Z,45.57
2022-12-12T03:21:44.459Z,45.88
2022-12-12T03:24:26.799Z,45.88
2022-12-12T03:27:00.558Z,45.75
2022-12-12T03:29:33.804Z,45.57
2022-12-12T03:32:10.237Z,45.95
2022-12-12T03:34:43.605Z,45.71
2022-12-12T03:37:20.841Z,45.64
2022-12-12T03:39:57.430Z,45.88
2022-12-12T03:42:31.324Z,45.78
2022-12-12T03:45:06.840Z,46.21
2022-12-12T03:47:42.465Z,45.46
2022-12-12T03:50:17.797Z,45.72
2022-12-12T03:52:53.328Z,45.75
2022-12-12T03:55:28.918Z,45.89
2022-12-12T03:58:02.205Z,45.49
2022-12-12T04:00:37.281Z,45.82
2022-12-12T04:03:15.810Z,45.73
2022-12-12T04:06:11.692Z,45.75
2022-12-12T04:09:02.360Z,45.43
2022-12-12T04:12:13.383Z,45.47
2022-12-12T04:15:15.367Z,45.67
2022-12-12T04:17:55.403Z,45.31
2022-12-12T04:20:48.616Z,45.80
2022-12-12T04:23:29.012Z,45.16
2022-12-12T04:26:28.926Z,45.29
2022-12-12T04:29:08.475Z,44.62
2022-12-12T04:31:42.930Z,44.78
2022-12-12T04:34:17.594Z,45.03
2022-12-12T04:36:48.842Z,44.80
2022-12-12T04:39:20.661Z,45.14
2022-12-12T04:41:53.973Z,44.54
2022-12-12T04:44:24.801Z,44.42
2022-12-12T04:46:57.675Z,43.35
2022-12-12T04:49:30.389Z,43.29
2022-12-12T04:52:03.884Z,43.88
2022-12-12T04:54:41.258Z,43.80
2022-12-12T04:57:16.523Z,44.13
2022-12-12T04:59:45.414Z,44.69
2022-12-12T05:02:25.514Z,43.97
2022-12-12T05:05:00.198Z,44.33
2022-12-12T05:07:40.036Z,44.30
2022-12-12T05:10:12.793Z,44.64
2022-12-12T05:12:46.470Z,44.41
2022-12-12T05:15:16.426Z,44.78
2022-12-12T05:17:48.913Z,44.65
2022-12-12T05:20:17.745Z,44.77
2022-12-12T05:22:46.098Z,44.64
2022-12-12T05:25:14.893Z,44.74
2022-12-12T05:27:44.786Z,44.93
2022-12-12T05:30:14.303Z,44.52
2022-12-12T05:32:42.661Z,44.02
2022-12-12T05:35:12.557Z,44.09
2022-12-12T05:37:41.203Z,43.81
2022-12-12T05:40:12.705Z,44.26
2022-12-12T05:42:41.250Z,43.98
2022-12-12T05:45:13.102Z,43.94
2022-12-12T05:47:41.884Z,43.59
2022-12-12T05:50:11.120Z,44.04
2022-12-12T05:52:39.648Z,44.04
2022-12-12T05:55:09.228Z,44.56
2022-12-12T05:57:37.580Z,44.61
2022-12-12T06:00:08.081Z,45.28
2022-12-12T06:02:37.974Z,45.47
2022-12-12T06:05:07.597Z,45.65
2022-12-12T06:07:35.944Z,45.97
2022-12-12T06:10:05.611Z,46.35
2022-12-12T06:12:34.007Z,46.17
2022-12-12T06:15:02.364Z,46.06
2022-12-12T06:17:33.362Z,46.48
2022-12-12T06:20:04.319Z,46.84
2022-12-12T06:22:32.800Z,47.09
2022-12-12T06:25:01.140Z,47.11
2022-12-12T06:27:29.594Z,47.76
2022-12-12T06:29:57.918Z,47.50
2022-12-12T06:32:26.247Z,47.80
2022-12-12T06:34:54.739Z,47.84
2022-12-12T06:37:24.584Z,47.92
2022-12-12T06:39:53.535Z,48.19
2022-12-12T06:42:21.970Z,48.34
2022-12-12T06:44:50.332Z,48.65
2022-12-12T06:47:18.745Z,49.18
2022-12-12T06:49:47.172Z,48.81
2022-12-12T06:52:15.542Z,49.09
2022-12-12T06:54:45.258Z,49.37
2022-12-12T06:57:13.685Z,49.35
2022-12-12T06:59:42.032Z,49.63
2022-12-12T07:02:12.368Z,49.54
2022-12-12T07:04:40.787Z,49.75
2022-12-12T07:07:09.150Z,49.70
2022-12-12T07:09:37.591Z,50.00
2022-12-12T07:12:07.563Z,49.84
2022-12-12T07:14:35.901Z,49.96
2022-12-12T07:17:04.297Z,50.03
2022-12-12T07:19:32.655Z,49.93
2022-12-12T07:22:07.494Z,49.73
2022-12-12T07:24:38.202Z,49.86
2022-12-12T07:27:08.519Z,49.77
2022-12-12T07:29:36.919Z,49.90
2022-12-12T07:32:05.908Z,49.88
2022-12-12T07:34:34.256Z,49.99
2022-12-12T07:37:03.442Z,50.09
2022-12-12T07:39:32.587Z,50.11
2022-12-12T07:42:01.143Z,50.13
2022-12-12T07:44:30.895Z,50.40
2022-12-12T07:46:59.899Z,50.45
2022-12-12T07:49:30.380Z,50.74
2022-12-12T07:51:58.729Z,50.30
2022-12-12T07:54:27.110Z,50.57
2022-12-12T07:56:55.644Z,50.45
2022-12-12T07:59:24.021Z,50.67
2022-12-12T08:01:53.870Z,50.43
2022-12-12T08:04:22.419Z,50.44
2022-12-12T08:06:56.198Z,50.82
2022-12-12T08:09:28.201Z,51.27
2022-12-12T08:11:57.103Z,51.27
2022-12-12T08:14:25.659Z,51.40
2022-12-12T08:16:55.475Z,51.91
2022-12-12T08:19:23.883Z,51.74
2022-12-12T08:21:52.346Z,51.41
2022-12-12T08:24:20.771Z,50.89
2022-12-12T08:26:51.829Z,50.81
2022-12-12T08:29:20.304Z,50.94
2022-12-12T08:31:48.930Z,50.88
2022-12-12T08:34:18.847Z,50.62
2022-12-12T08:36:47.563Z,50.27
2022-12-12T08:39:17.555Z,50.28
2022-12-12T08:41:48.536Z,50.60
2022-12-12T08:44:18.961Z,50.27
2022-12-12T08:46:49.049Z,50.13
2022-12-12T08:49:18.888Z,49.61
2022-12-12T08:51:47.355Z,49.45
2022-12-12T08:54:15.939Z,49.11
2022-12-12T08:56:44.399Z,49.00
2022-12-12T08:59:13.390Z,49.49
2022-12-12T09:01:42.353Z,48.83
2022-12-12T09:04:10.900Z,48.95
2022-12-12T09:06:40.708Z,49.15
2022-12-12T09:09:09.121Z,48.87
2022-12-12T09:11:37.540Z,48.77
2022-12-12T09:14:06.000Z,48.16
2022-12-12T09:16:34.493Z,48.07
2022-12-12T09:19:03.256Z,48.17
2022-12-12T09:21:31.665Z,47.76
2022-12-12T09:24:02.066Z,47.30
2022-12-12T09:26:30.585Z,47.63
2022-12-12T09:28:59.042Z,47.48
2022-12-12T09:31:27.502Z,47.95
2022-12-12T09:33:55.989Z,47.31
2022-12-12T09:36:24.399Z,47.05
2022-12-12T09:38:52.788Z,47.05
2022-12-12T09:41:27.301Z,47.56
2022-12-12T09:44:00.275Z,47.37
2022-12-12T09:46:35.811Z,47.32
2022-12-12T09:49:16.772Z,46.98
2022-12-12T09:51:49.231Z,45.40
2022-12-12T09:54:20.645Z,44.99
2022-12-12T09:57:06.029Z,46.13
2022-12-12T09:59:43.961Z,44.51
2022-12-12T10:02:49.424Z,45.50
2022-12-12T10:05:31.225Z,45.56
2022-12-12T10:08:11.785Z,46.24
2022-12-12T10:10:42.946Z,45.01
2022-12-12T10:13:18.089Z,45.68
2022-12-12T10:15:50.444Z,45.69
2022-12-12T10:18:26.212Z,46.31
2022-12-12T10:21:00.637Z,46.23
2022-12-12T10:23:38.936Z,46.13
2022-12-12T10:26:12.718Z,45.90
2022-12-12T10:28:42.599Z,45.57
2022-12-12T10:31:30.315Z,46.11
2022-12-12T10:34:18.625Z,47.01
2022-12-12T10:37:08.706Z,46.84
2022-12-12T10:39:51.671Z,47.58
2022-12-12T10:42:28.798Z,47.34
2022-12-12T10:45:19.309Z,46.75
2022-12-12T10:47:49.061Z,46.42
2022-12-12T10:50:29.772Z,46.31
2022-12-12T10:52:58.203Z,46.61
2022-12-12T10:55:40.465Z,47.14
2022-12-12T10:58:09.075Z,46.33
2022-12-12T11:00:41.875Z,46.47
2022-12-12T11:03:28.140Z,47.35
2022-12-12T11:05:58.249Z,47.11
2022-12-12T11:08:31.455Z,47.34
2022-12-12T11:11:06.584Z,47.43
2022-12-12T11:13:46.373Z,47.72
2022-12-12T11:16:20.758Z,48.58
2022-12-12T11:19:01.685Z,47.72
2022-12-12T11:21:32.928Z,47.51
2022-12-12T11:24:05.888Z,48.18
2022-12-12T11:26:44.690Z,47.93
2022-12-12T11:29:37.475Z,48.09
2022-12-12T11:32:15.901Z,48.40
2022-12-12T11:34:49.335Z,48.37
2022-12-12T11:37:20.616Z,47.83
2022-12-12T11:39:53.632Z,47.41
2022-12-12T11:42:26.250Z,47.16
2022-12-12T11:45:05.544Z,46.95
2022-12-12T11:47:42.483Z,47.48
2022-12-12T11:50:22.473Z,47.14
2022-12-12T11:52:53.005Z,45.97
2022-12-12T11:55:30.372Z,46.84
2022-12-12T11:58:16.951Z,45.97
2022-12-12T12:00:56.677Z,45.33
2022-12-12T12:03:36.805Z,45.03
2022-12-12T12:06:26.157Z,45.54
2022-12-12T12:09:19.543Z,45.84
2022-12-12T12:12:01.445Z,46.65
2022-12-12T12:15:07.403Z,46.61
2022-12-12T12:18:03.678Z,46.80
2022-12-12T12:20:54.478Z,46.18
2022-12-12T12:23:41.844Z,46.90
2022-12-12T12:26:20.453Z,46.62
2022-12-12T12:29:36.967Z,47.27
2022-12-12T12:32:15.041Z,47.39
2022-12-12T12:35:02.026Z,47.54
2022-12-12T12:37:49.722Z,48.71
2022-12-12T12:40:34.760Z,48.39
2022-12-12T12:43:28.529Z,48.36
2022-12-12T12:46:06.799Z,48.80
2022-12-12T12:48:40.604Z,48.43
2022-12-12T12:51:19.547Z,48.86
2022-12-12T12:53:55.886Z,48.62
2022-12-12T12:56:28.813Z,48.63
2022-12-12T12:59:02.460Z,48.83
2022-12-12T13:01:36.234Z,48.83
2022-12-12T13:04:15.540Z,49.06
2022-12-12T13:06:50.430Z,48.27
2022-12-12T13:09:33.478Z,47.51
2022-12-12T13:12:10.414Z,48.06
2022-12-12T13:14:47.385Z,48.27
2022-12-12T13:17:20.183Z,47.92
2022-12-12T13:19:53.483Z,47.69
2022-12-12T13:22:31.809Z,48.71
2022-12-12T13:25:10.451Z,49.65
2022-12-12T13:27:45.991Z,50.29
2022-12-12T13:30:24.773Z,50.82
2022-12-12T13:33:21.939Z,51.57
2022-12-12T13:35:54.672Z,52.21
2022-12-12T13:38:29.105Z,51.88
2022-12-12T13:41:01.405Z,52.58
2022-12-12T13:43:42.621Z,52.30
2022-12-12T13:46:41.054Z,52.68
2022-12-12T13:49:31.993Z,52.45
2022-12-12T13:52:23.986Z,52.91
2022-12-12T13:54:55.650Z,52.68
2022-12-12T13:57:34.583Z,52.95
2022-12-12T14:00:21.041Z,53.16
2022-12-12T14:03:03.534Z,53.02
2022-12-12T14:05:36.102Z,53.29
2022-12-12T14:08:21.081Z,53.15
2022-12-12T14:10:58.257Z,53.08
2022-12-12T14:13:44.930Z,53.32
2022-12-12T14:16:23.204Z,53.20
2022-12-12T14:19:29.687Z,53.49
2022-12-12T14:21:58.146Z,53.48
2022-12-12T14:25:07.780Z,53.16
2022-12-12T14:28:16.917Z,53.01
2022-12-12T14:31:00.627Z,53.40
2022-12-12T14:34:11.490Z,53.14
2022-12-12T14:37:18.494Z,53.23
2022-12-12T14:40:03.809Z,53.11
2022-12-12T14:43:19.628Z,53.32
2022-12-12T14:45:38.195Z,53.30
2022-12-12T14:48:18.734Z,53.63
2022-12-12T14:50:55.965Z,53.23
2022-12-12T14:53:28.758Z,53.33
2022-12-12T14:56:01.422Z,53.16
2022-12-12T14:58:33.335Z,53.40
2022-12-12T15:01:05.248Z,53.70
2022-12-12T15:03:40.905Z,53.71
2022-12-12T15:06:38.812Z,53.79
2022-12-12T15:09:20.448Z,53.94
2022-12-12T15:11:50.984Z,53.60
2022-12-12T15:14:23.559Z,53.83
2022-12-12T15:17:01.500Z,53.93
2022-12-12T15:19:36.136Z,53.71
2022-12-12T15:22:10.395Z,53.89
2022-12-12T15:24:40.488Z,53.69
2022-12-12T15:27:09.233Z,53.65
2022-12-12T15:29:39.646Z,53.73
2022-12-12T15:32:17.549Z,53.69
2022-12-12T15:34:49.824Z,53.96
2022-12-12T15:37:26.866Z,53.71
2022-12-12T15:40:31.163Z,54.22
2022-12-12T15:43:03.287Z,53.60
2022-12-12T15:45:35.332Z,53.87
2022-12-12T15:48:06.016Z,53.75
2022-12-12T15:50:57.081Z,53.50
2022-12-12T15:53:28.081Z,54.00
2022-12-12T15:56:01.799Z,53.67
2022-12-12T15:58:33.288Z,53.55
2022-12-12T16:01:20.653Z,53.39
2022-12-12T16:03:59.699Z,53.63
2022-12-12T16:06:36.775Z,53.68
2022-12-12T16:09:17.928Z,54.02
2022-12-12T16:11:48.198Z,54.17
2022-12-12T16:14:40.674Z,53.96
2022-12-12T16:17:15.512Z,54.06
2022-12-12T16:19:53.678Z,54.04
2022-12-12T16:22:34.840Z,53.73
2022-12-12T16:25:18.533Z,53.86
2022-12-12T16:27:53.391Z,53.95
2022-12-12T16:30:21.833Z,53.91
2022-12-12T16:32:50.414Z,54.22
2022-12-12T16:35:21.234Z,54.44
2022-12-12T16:37:52.632Z,53.77
2022-12-12T16:40:23.395Z,54.21
2022-12-12T16:43:04.798Z,53.76
2022-12-12T16:45:36.474Z,54.20
2022-12-12T16:48:17.102Z,54.26
2022-12-12T16:50:46.666Z,54.05
2022-12-12T16:53:16.856Z,53.64
2022-12-12T16:55:47.755Z,53.88
2022-12-12T16:58:16.825Z,53.60
2022-12-12T17:00:46.549Z,53.73
2022-12-12T17:03:17.521Z,53.78
2022-12-12T17:05:50.178Z,53.67
2022-12-12T17:08:20.829Z,53.83
2022-12-12T17:11:10.568Z,53.95
2022-12-12T17:13:45.606Z,53.56
2022-12-12T17:16:14.547Z,53.63
2022-12-12T17:18:43.445Z,53.64
2022-12-12T17:21:12.616Z,53.69
2022-12-12T17:23:43.765Z,53.87
2022-12-12T17:26:12.587Z,53.98
2022-12-12T17:28:42.031Z,53.81
2022-12-12T17:31:11.662Z,53.69
2022-12-12T17:33:49.816Z,53.76
2022-12-12T17:36:19.312Z,53.57
2022-12-12T17:38:50.103Z,54.07
2022-12-12T17:41:19.439Z,53.68
2022-12-12T17:43:55.093Z,53.88
2022-12-12T17:46:26.768Z,53.74
2022-12-12T17:48:57.710Z,53.30
2022-12-12T17:51:27.055Z,53.53
2022-12-12T17:53:59.863Z,53.32
2022-12-12T17:56:29.634Z,53.15
2022-12-12T17:58:58.560Z,53.33
2022-12-12T18:01:30.174Z,53.24
2022-12-12T18:04:01.078Z,53.43
2022-12-12T18:06:32.164Z,53.63
2022-12-12T18:09:02.942Z,53.35
2022-12-12T18:11:36.113Z,53.25
2022-12-12T18:14:09.665Z,53.37
2022-12-12T18:16:38.355Z,53.40
2022-12-12T18:19:08.448Z,53.07
2022-12-12T18:24:30.085Z,53.24
2022-12-12T18:27:04.444Z,53.35
2022-12-12T18:29:34.989Z,53.25
2022-12-12T18:32:05.026Z,53.19
2022-12-12T18:34:34.920Z,53.47
2022-12-12T18:37:05.272Z,53.44
2022-12-12T18:39:35.672Z,53.01
2022-12-12T18:42:05.628Z,53.14
2022-12-12T18:44:35.248Z,53.16
2022-12-12T18:47:04.371Z,53.04
2022-12-12T18:49:34.009Z,53.24
2022-12-12T18:52:04.848Z,52.90
2022-12-12T18:54:36.175Z,53.54
2022-12-12T18:57:06.044Z,53.28
2022-12-12T18:59:38.506Z,52.90
2022-12-12T19:02:14.315Z,52.90
2022-12-12T19:04:44.906Z,53.25
2022-12-12T19:07:14.774Z,52.73
2022-12-12T19:09:47.827Z,52.80
2022-12-12T19:12:18.011Z,53.04
2022-12-12T19:17:42.034Z,52.92
2022-12-12T19:20:18.767Z,53.05
2022-12-12T19:22:50.530Z,52.57
2022-12-12T19:25:22.498Z,52.85
2022-12-12T19:27:52.810Z,52.75
2022-12-12T19:30:28.543Z,52.75
2022-12-12T19:32:58.571Z,52.74
2022-12-12T19:35:28.569Z,52.75
2022-12-12T19:37:58.720Z,52.52
2022-12-12T19:40:30.094Z,52.61
2022-12-12T19:43:00.242Z,52.70
2022-12-12T19:45:32.159Z,52.26
2022-12-12T19:48:02.015Z,52.03
2022-12-12T19:50:32.643Z,51.67
2022-12-12T19:53:02.801Z,52.20
2022-12-12T19:55:34.732Z,51.80
2022-12-12T19:58:04.916Z,51.83
2022-12-12T20:00:34.416Z,51.54
2022-12-12T20:03:05.008Z,51.39
2022-12-12T20:05:34.453Z,51.47
2022-12-12T20:08:05.304Z,51.68
2022-12-12T20:10:38.903Z,51.81
2022-12-12T20:13:08.529Z,51.47
2022-12-12T20:15:40.305Z,51.39
2022-12-12T20:18:16.116Z,51.10
2022-12-12T20:20:47.373Z,50.72
2022-12-12T20:23:17.385Z,50.52
2022-12-12T20:25:48.975Z,49.92
2022-12-12T20:28:20.393Z,49.93
2022-12-12T20:30:53.697Z,49.96
2022-12-12T20:33:23.185Z,50.17
2022-12-12T20:35:52.463Z,50.63
2022-12-12T20:38:23.965Z,50.26
2022-12-12T20:40:55.224Z,50.51
2022-12-12T20:43:25.699Z,50.49
2022-12-12T20:45:55.567Z,50.45
2022-12-12T20:48:29.875Z,50.02
2022-12-12T20:51:00.704Z,50.19
2022-12-12T20:53:36.148Z,50.02
2022-12-12T20:56:11.239Z,49.79
2022-12-12T20:58:41.532Z,49.57
2022-12-12T21:01:15.459Z,50.05
2022-12-12T21:03:45.374Z,49.75
2022-12-12T21:06:15.326Z,50.13
2022-12-12T21:08:48.317Z,49.94
2022-12-12T21:11:21.023Z,50.13
2022-12-12T21:13:51.141Z,49.90
2022-12-12T21:16:23.603Z,50.31
2022-12-12T21:18:56.140Z,49.88
2022-12-12T21:21:26.011Z,49.86
2022-12-12T21:23:56.025Z,49.67
2022-12-12T21:26:29.460Z,49.63
2022-12-12T21:29:00.031Z,49.48
2022-12-12T21:31:31.997Z,49.27
2022-12-12T21:34:01.508Z,49.05
2022-12-12T21:36:31.510Z,49.47
2022-12-12T21:39:01.825Z,48.61
2022-12-12T21:41:31.760Z,49.04
2022-12-12T21:44:00.763Z,48.76
2022-12-12T21:46:30.667Z,48.33
2022-12-12T21:49:17.555Z,48.49
2022-12-12T21:51:46.716Z,48.68
2022-12-12T21:54:16.765Z,48.38
2022-12-12T21:56:46.868Z,48.26
2022-12-12T21:59:15.964Z,47.84
2022-12-12T22:01:44.945Z,48.46
2022-12-12T22:04:14.565Z,48.84
2022-12-12T22:06:45.374Z,48.64
2022-12-12T22:09:14.381Z,48.68
2022-12-12T22:11:50.724Z,48.90
2022-12-12T22:14:22.947Z,49.24
2022-12-12T22:16:51.578Z,48.67
2022-12-12T22:19:20.176Z,48.83
2022-12-12T22:21:50.487Z,48.97
2022-12-12T22:24:19.244Z,49.52
2022-12-12T22:26:49.965Z,49.58
2022-12-12T22:29:22.038Z,49.28
2022-12-12T22:31:52.239Z,48.97
2022-12-12T22:34:23.893Z,49.67
2022-12-12T22:36:53.107Z,49.22
2022-12-12T22:39:25.274Z,49.38
2022-12-12T22:41:54.002Z,49.06
2022-12-12T22:44:25.489Z,49.57
2022-12-12T22:46:55.865Z,49.45
2022-12-12T22:49:26.758Z,49.57
2022-12-12T22:51:58.807Z,49.17
2022-12-12T22:54:28.119Z,49.34
2022-12-12T22:56:56.648Z,49.64
2022-12-12T22:59:26.599Z,49.85
2022-12-12T23:01:55.047Z,49.61
2022-12-12T23:04:23.434Z,49.71
2022-12-12T23:06:51.843Z,49.26
2022-12-12T23:09:23.124Z,49.46
2022-12-12T23:11:51.472Z,49.86
2022-12-12T23:14:23.951Z,49.12
2022-12-12T23:16:55.273Z,49.66
2022-12-12T23:19:27.337Z,49.86
2022-12-12T23:21:55.778Z,49.49
2022-12-12T23:24:24.146Z,49.51
2022-12-12T23:26:53.180Z,49.26
2022-12-12T23:29:21.705Z,48.56
2022-12-12T23:31:50.506Z,49.30
2022-12-12T23:34:23.363Z,49.04
2022-12-12T23:36:52.705Z,48.60
2022-12-12T23:39:21.853Z,48.91
2022-12-12T23:41:50.621Z,49.05
2022-12-12T23:44:21.405Z,48.54
2022-12-12T23:46:50.125Z,48.41
2022-12-12T23:49:22.790Z,48.72
2022-12-12T23:51:53.671Z,48.44
2022-12-12T23:54:25.289Z,48.25
2022-12-12T23:56:54.714Z,48.40
2022-12-12T23:59:23.858Z,48.38
